sensor_id;sensor_type;location;lat;lon;timestamp;P1;durP1;ratioP1;P2;durP2;ratioP2
56161;SDS011;42045;52.986;6.014;2023-01-29T00:01:26;16.80;;;12.27;;
56161;SDS011;42045;52.986;6.014;2023-01-29T00:03:52;16.35;;;10.88;;
56161;SDS011;42045;52.986;6.014;2023-01-29T00:06:18;16.00;;;11.00;;
56161;SDS011;42045;52.986;6.014;2023-01-29T00:08:44;12.90;;;10.57;;
56161;SDS011;42045;52.986;6.014;2023-01-29T00:11:10;14.82;;;11.07;;
56161;SDS011;42045;52.986;6.014;2023-01-29T00:13:36;16.92;;;10.95;;
56161;SDS011;42045;52.986;6.014;2023-01-29T00:16:02;14.48;;;10.63;;
56161;SDS011;42045;52.986;6.014;2023-01-29T00:18:29;13.32;;;10.38;;
56161;SDS011;42045;52.986;6.014;2023-01-29T00:20:55;14.48;;;10.90;;
56161;SDS011;42045;52.986;6.014;2023-01-29T00:23:21;13.93;;;9.98;;
56161;SDS011;42045;52.986;6.014;2023-01-29T00:25:47;12.88;;;9.88;;
56161;SDS011;42045;52.986;6.014;2023-01-29T00:28:13;13.40;;;10.65;;
56161;SDS011;42045;52.986;6.014;2023-01-29T00:30:40;13.15;;;10.02;;
56161;SDS011;42045;52.986;6.014;2023-01-29T00:33:06;15.60;;;10.38;;
56161;SDS011;42045;52.986;6.014;2023-01-29T00:35:32;14.75;;;10.43;;
56161;SDS011;42045;52.986;6.014;2023-01-29T00:37:58;12.85;;;10.40;;
56161;SDS011;42045;52.986;6.014;2023-01-29T00:40:24;15.23;;;10.13;;
56161;SDS011;42045;52.986;6.014;2023-01-29T00:42:51;11.95;;;9.85;;
56161;SDS011;42045;52.986;6.014;2023-01-29T00:45:35;14.98;;;10.65;;
56161;SDS011;42045;52.986;6.014;2023-01-29T00:48:02;13.10;;;9.30;;
56161;SDS011;42045;52.986;6.014;2023-01-29T00:50:29;15.63;;;10.07;;
56161;SDS011;42045;52.986;6.014;2023-01-29T00:52:55;12.15;;;9.65;;
56161;SDS011;42045;52.986;6.014;2023-01-29T00:55:20;16.00;;;9.88;;
56161;SDS011;42045;52.986;6.014;2023-01-29T00:57:46;13.55;;;11.23;;
56161;SDS011;42045;52.986;6.014;2023-01-29T01:00:13;12.43;;;10.30;;
56161;SDS011;42045;52.986;6.014;2023-01-29T01:02:40;13.32;;;10.63;;
56161;SDS011;42045;52.986;6.014;2023-01-29T01:05:25;11.77;;;9.80;;
56161;SDS011;42045;52.986;6.014;2023-01-29T01:07:52;13.35;;;10.10;;
56161;SDS011;42045;52.986;6.014;2023-01-29T01:10:28;13.65;;;9.82;;
56161;SDS011;42045;52.986;6.014;2023-01-29T01:12:58;12.13;;;10.38;;
56161;SDS011;42045;52.986;6.014;2023-01-29T01:15:27;12.77;;;10.32;;
56161;SDS011;42045;52.986;6.014;2023-01-29T01:17:59;14.25;;;9.73;;
56161;SDS011;42045;52.986;6.014;2023-01-29T01:20:27;13.95;;;10.30;;
56161;SDS011;42045;52.986;6.014;2023-01-29T01:22:54;12.45;;;10.32;;
56161;SDS011;42045;52.986;6.014;2023-01-29T01:25:20;14.25;;;10.70;;
56161;SDS011;42045;52.986;6.014;2023-01-29T01:27:50;12.57;;;9.90;;
56161;SDS011;42045;52.986;6.014;2023-01-29T01:30:20;12.90;;;9.27;;
56161;SDS011;42045;52.986;6.014;2023-01-29T01:32:46;12.30;;;9.90;;
56161;SDS011;42045;52.986;6.014;2023-01-29T01:35:11;14.18;;;10.10;;
56161;SDS011;42045;52.986;6.014;2023-01-29T01:37:40;12.93;;;10.82;;
56161;SDS011;42045;52.986;6.014;2023-01-29T01:40:07;13.93;;;9.95;;
56161;SDS011;42045;52.986;6.014;2023-01-29T01:42:47;15.05;;;10.93;;
56161;SDS011;42045;52.986;6.014;2023-01-29T01:47:50;13.90;;;10.38;;
56161;SDS011;42045;52.986;6.014;2023-01-29T01:50:31;14.80;;;10.05;;
56161;SDS011;42045;52.986;6.014;2023-01-29T01:53:08;14.90;;;11.05;;
56161;SDS011;42045;52.986;6.014;2023-01-29T01:55:38;14.40;;;10.57;;
56161;SDS011;42045;52.986;6.014;2023-01-29T01:58:11;14.18;;;10.18;;
56161;SDS011;42045;52.986;6.014;2023-01-29T02:00:40;14.48;;;11.18;;
56161;SDS011;42045;52.986;6.014;2023-01-29T02:03:06;14.73;;;10.68;;
56161;SDS011;42045;52.986;6.014;2023-01-29T02:05:53;16.08;;;11.18;;
56161;SDS011;42045;52.986;6.014;2023-01-29T02:08:56;14.93;;;10.88;;
56161;SDS011;42045;52.986;6.014;2023-01-29T02:11:44;13.20;;;11.30;;
56161;SDS011;42045;52.986;6.014;2023-01-29T02:14:10;14.93;;;11.75;;
56161;SDS011;42045;52.986;6.014;2023-01-29T02:16:36;15.00;;;11.93;;
56161;SDS011;42045;52.986;6.014;2023-01-29T02:19:03;16.60;;;12.38;;
56161;SDS011;42045;52.986;6.014;2023-01-29T02:21:40;14.82;;;12.40;;
56161;SDS011;42045;52.986;6.014;2023-01-29T02:24:37;15.27;;;12.00;;
56161;SDS011;42045;52.986;6.014;2023-01-29T02:27:23;16.73;;;12.95;;
56161;SDS011;42045;52.986;6.014;2023-01-29T02:30:16;14.70;;;12.00;;
56161;SDS011;42045;52.986;6.014;2023-01-29T02:32:58;13.77;;;11.82;;
56161;SDS011;42045;52.986;6.014;2023-01-29T02:35:34;15.98;;;12.50;;
56161;SDS011;42045;52.986;6.014;2023-01-29T02:57:18;17.00;;;13.80;;
56161;SDS011;42045;52.986;6.014;2023-01-29T03:02:28;20.50;;;13.57;;
56161;SDS011;42045;52.986;6.014;2023-01-29T03:05:20;19.55;;;13.27;;
56161;SDS011;42045;52.986;6.014;2023-01-29T03:08:11;16.90;;;14.23;;
56161;SDS011;42045;52.986;6.014;2023-01-29T03:10:47;15.50;;;13.82;;
56161;SDS011;42045;52.986;6.014;2023-01-29T03:16:13;19.70;;;15.65;;
56161;SDS011;42045;52.986;6.014;2023-01-29T03:19:10;21.65;;;16.48;;
56161;SDS011;42045;52.986;6.014;2023-01-29T03:21:58;20.73;;;15.80;;
56161;SDS011;42045;52.986;6.014;2023-01-29T03:27:15;20.00;;;16.30;;
56161;SDS011;42045;52.986;6.014;2023-01-29T03:30:04;16.98;;;14.43;;
56161;SDS011;42045;52.986;6.014;2023-01-29T03:32:50;20.33;;;14.80;;
56161;SDS011;42045;52.986;6.014;2023-01-29T03:35:18;18.20;;;15.20;;
56161;SDS011;42045;52.986;6.014;2023-01-29T03:38:01;19.65;;;14.70;;
56161;SDS011;42045;52.986;6.014;2023-01-29T03:40:41;20.90;;;15.13;;
56161;SDS011;42045;52.986;6.014;2023-01-29T03:43:54;18.67;;;14.88;;
56161;SDS011;42045;52.986;6.014;2023-01-29T03:46:38;17.65;;;15.18;;
56161;SDS011;42045;52.986;6.014;2023-01-29T03:49:22;17.30;;;14.75;;
56161;SDS011;42045;52.986;6.014;2023-01-29T03:51:58;21.10;;;15.35;;
56161;SDS011;42045;52.986;6.014;2023-01-29T03:54:31;18.92;;;14.15;;
56161;SDS011;42045;52.986;6.014;2023-01-29T03:57:27;19.23;;;15.77;;
56161;SDS011;42045;52.986;6.014;2023-01-29T04:05:22;17.58;;;14.73;;
56161;SDS011;42045;52.986;6.014;2023-01-29T04:07:53;17.90;;;14.15;;
56161;SDS011;42045;52.986;6.014;2023-01-29T04:10:27;17.30;;;14.38;;
56161;SDS011;42045;52.986;6.014;2023-01-29T04:12:58;16.95;;;13.82;;
56161;SDS011;42045;52.986;6.014;2023-01-29T04:15:28;18.17;;;15.23;;
56161;SDS011;42045;52.986;6.014;2023-01-29T04:17:57;17.35;;;14.80;;
56161;SDS011;42045;52.986;6.014;2023-01-29T04:20:23;17.05;;;14.75;;
56161;SDS011;42045;52.986;6.014;2023-01-29T04:22:50;16.75;;;14.95;;
56161;SDS011;42045;52.986;6.014;2023-01-29T04:25:20;19.75;;;15.52;;
56161;SDS011;42045;52.986;6.014;2023-01-29T04:30:32;19.55;;;15.77;;
56161;SDS011;42045;52.986;6.014;2023-01-29T04:33:34;20.15;;;14.52;;
56161;SDS011;42045;52.986;6.014;2023-01-29T04:36:21;19.23;;;14.95;;
56161;SDS011;42045;52.986;6.014;2023-01-29T04:41:45;19.42;;;14.50;;
56161;SDS011;42045;52.986;6.014;2023-01-29T04:44:22;17.95;;;14.60;;
56161;SDS011;42045;52.986;6.014;2023-01-29T04:55:02;17.90;;;14.98;;
56161;SDS011;42045;52.986;6.014;2023-01-29T05:00:19;17.67;;;14.85;;
56161;SDS011;42045;52.986;6.014;2023-01-29T05:02:59;14.05;;;11.88;;
56161;SDS011;42045;52.986;6.014;2023-01-29T05:05:25;19.88;;;16.92;;
56161;SDS011;42045;52.986;6.014;2023-01-29T05:07:51;21.63;;;16.85;;
56161;SDS011;42045;52.986;6.014;2023-01-29T05:10:19;24.90;;;19.13;;
56161;SDS011;42045;52.986;6.014;2023-01-29T05:12:48;28.70;;;21.38;;
56161;SDS011;42045;52.986;6.014;2023-01-29T05:15:20;22.83;;;19.27;;
56161;SDS011;42045;52.986;6.014;2023-01-29T05:17:49;24.27;;;19.20;;
56161;SDS011;42045;52.986;6.014;2023-01-29T05:20:17;25.63;;;19.63;;
56161;SDS011;42045;52.986;6.014;2023-01-29T05:22:44;23.00;;;19.02;;
56161;SDS011;42045;52.986;6.014;2023-01-29T05:25:20;26.55;;;20.35;;
56161;SDS011;42045;52.986;6.014;2023-01-29T05:27:48;25.27;;;20.15;;
56161;SDS011;42045;52.986;6.014;2023-01-29T05:30:28;26.95;;;21.50;;
56161;SDS011;42045;52.986;6.014;2023-01-29T05:32:53;27.23;;;22.33;;
56161;SDS011;42045;52.986;6.014;2023-01-29T05:35:19;30.25;;;22.60;;
56161;SDS011;42045;52.986;6.014;2023-01-29T05:37:45;31.98;;;23.77;;
56161;SDS011;42045;52.986;6.014;2023-01-29T05:40:10;30.95;;;25.17;;
56161;SDS011;42045;52.986;6.014;2023-01-29T05:42:36;29.65;;;24.35;;
56161;SDS011;42045;52.986;6.014;2023-01-29T05:45:02;31.33;;;23.75;;
56161;SDS011;42045;52.986;6.014;2023-01-29T05:47:28;27.85;;;23.23;;
56161;SDS011;42045;52.986;6.014;2023-01-29T05:49:54;27.55;;;22.58;;
56161;SDS011;42045;52.986;6.014;2023-01-29T05:52:19;32.20;;;23.67;;
56161;SDS011;42045;52.986;6.014;2023-01-29T05:54:45;28.48;;;23.80;;
56161;SDS011;42045;52.986;6.014;2023-01-29T05:57:10;28.10;;;23.42;;
56161;SDS011;42045;52.986;6.014;2023-01-29T05:59:36;31.17;;;23.83;;
56161;SDS011;42045;52.986;6.014;2023-01-29T06:02:02;27.80;;;23.45;;
56161;SDS011;42045;52.986;6.014;2023-01-29T06:04:27;33.50;;;25.75;;
56161;SDS011;42045;52.986;6.014;2023-01-29T06:06:53;32.42;;;25.98;;
56161;SDS011;42045;52.986;6.014;2023-01-29T06:09:19;36.53;;;29.05;;
56161;SDS011;42045;52.986;6.014;2023-01-29T06:11:44;34.95;;;28.23;;
56161;SDS011;42045;52.986;6.014;2023-01-29T06:14:10;36.85;;;29.50;;
56161;SDS011;42045;52.986;6.014;2023-01-29T06:16:35;35.75;;;30.63;;
56161;SDS011;42045;52.986;6.014;2023-01-29T06:19:01;40.03;;;31.58;;
56161;SDS011;42045;52.986;6.014;2023-01-29T06:21:27;44.72;;;34.17;;
56161;SDS011;42045;52.986;6.014;2023-01-29T06:23:52;41.47;;;32.78;;
56161;SDS011;42045;52.986;6.014;2023-01-29T06:26:18;44.65;;;33.92;;
56161;SDS011;42045;52.986;6.014;2023-01-29T06:28:46;46.42;;;34.58;;
56161;SDS011;42045;52.986;6.014;2023-01-29T06:31:13;45.72;;;35.20;;
56161;SDS011;42045;52.986;6.014;2023-01-29T06:33:39;45.08;;;36.40;;
56161;SDS011;42045;52.986;6.014;2023-01-29T06:36:04;48.42;;;38.05;;
56161;SDS011;42045;52.986;6.014;2023-01-29T06:38:30;47.38;;;37.08;;
56161;SDS011;42045;52.986;6.014;2023-01-29T06:40:56;43.70;;;35.05;;
56161;SDS011;42045;52.986;6.014;2023-01-29T06:43:22;43.90;;;35.92;;
56161;SDS011;42045;52.986;6.014;2023-01-29T06:45:55;44.78;;;36.17;;
56161;SDS011;42045;52.986;6.014;2023-01-29T06:48:22;47.42;;;38.05;;
56161;SDS011;42045;52.986;6.014;2023-01-29T06:50:48;46.03;;;35.28;;
56161;SDS011;42045;52.986;6.014;2023-01-29T06:53:14;45.22;;;35.28;;
56161;SDS011;42045;52.986;6.014;2023-01-29T06:55:42;47.40;;;37.80;;
56161;SDS011;42045;52.986;6.014;2023-01-29T06:58:09;44.10;;;35.67;;
56161;SDS011;42045;52.986;6.014;2023-01-29T07:00:36;43.05;;;35.83;;
56161;SDS011;42045;52.986;6.014;2023-01-29T07:03:03;46.70;;;36.83;;
56161;SDS011;42045;52.986;6.014;2023-01-29T07:05:29;47.33;;;36.08;;
56161;SDS011;42045;52.986;6.014;2023-01-29T07:07:55;46.63;;;36.42;;
56161;SDS011;42045;52.986;6.014;2023-01-29T07:10:21;44.35;;;35.03;;
56161;SDS011;42045;52.986;6.014;2023-01-29T07:12:47;46.03;;;35.78;;
56161;SDS011;42045;52.986;6.014;2023-01-29T07:15:13;45.60;;;36.55;;
56161;SDS011;42045;52.986;6.014;2023-01-29T07:17:39;44.55;;;36.55;;
56161;SDS011;42045;52.986;6.014;2023-01-29T07:20:05;43.50;;;37.08;;
56161;SDS011;42045;52.986;6.014;2023-01-29T07:22:31;42.53;;;35.83;;
56161;SDS011;42045;52.986;6.014;2023-01-29T07:24:57;42.00;;;35.78;;
56161;SDS011;42045;52.986;6.014;2023-01-29T07:27:23;48.05;;;37.70;;
56161;SDS011;42045;52.986;6.014;2023-01-29T07:29:48;44.22;;;35.05;;
56161;SDS011;42045;52.986;6.014;2023-01-29T07:32:14;41.83;;;34.05;;
56161;SDS011;42045;52.986;6.014;2023-01-29T07:34:40;44.40;;;34.55;;
56161;SDS011;42045;52.986;6.014;2023-01-29T07:37:05;46.00;;;35.15;;
56161;SDS011;42045;52.986;6.014;2023-01-29T07:39:31;44.40;;;34.83;;
56161;SDS011;42045;52.986;6.014;2023-01-29T07:41:57;42.60;;;34.25;;
56161;SDS011;42045;52.986;6.014;2023-01-29T07:44:22;43.25;;;33.97;;
56161;SDS011;42045;52.986;6.014;2023-01-29T07:46:48;42.50;;;34.30;;
56161;SDS011;42045;52.986;6.014;2023-01-29T07:49:14;45.55;;;34.75;;
56161;SDS011;42045;52.986;6.014;2023-01-29T07:51:40;45.50;;;34.75;;
56161;SDS011;42045;52.986;6.014;2023-01-29T07:54:06;47.50;;;36.63;;
56161;SDS011;42045;52.986;6.014;2023-01-29T07:56:31;45.33;;;35.63;;
56161;SDS011;42045;52.986;6.014;2023-01-29T07:58:57;52.67;;;34.33;;
56161;SDS011;42045;52.986;6.014;2023-01-29T08:01:23;50.42;;;38.15;;
56161;SDS011;42045;52.986;6.014;2023-01-29T08:03:49;49.42;;;35.67;;
56161;SDS011;42045;52.986;6.014;2023-01-29T08:06:15;48.70;;;35.25;;
56161;SDS011;42045;52.986;6.014;2023-01-29T08:08:40;49.35;;;37.17;;
56161;SDS011;42045;52.986;6.014;2023-01-29T08:11:06;51.72;;;36.72;;
56161;SDS011;42045;52.986;6.014;2023-01-29T08:13:32;51.88;;;37.50;;
56161;SDS011;42045;52.986;6.014;2023-01-29T08:15:59;50.63;;;37.38;;
56161;SDS011;42045;52.986;6.014;2023-01-29T08:18:25;55.33;;;40.22;;
56161;SDS011;42045;52.986;6.014;2023-01-29T08:20:51;52.15;;;37.55;;
56161;SDS011;42045;52.986;6.014;2023-01-29T08:23:17;52.35;;;39.22;;
56161;SDS011;42045;52.986;6.014;2023-01-29T08:25:42;51.40;;;37.20;;
56161;SDS011;42045;52.986;6.014;2023-01-29T08:28:08;50.35;;;38.63;;
56161;SDS011;42045;52.986;6.014;2023-01-29T08:30:36;54.08;;;40.40;;
56161;SDS011;42045;52.986;6.014;2023-01-29T08:33:02;54.90;;;38.97;;
56161;SDS011;42045;52.986;6.014;2023-01-29T08:35:28;54.92;;;40.30;;
56161;SDS011;42045;52.986;6.014;2023-01-29T08:37:55;56.97;;;37.50;;
56161;SDS011;42045;52.986;6.014;2023-01-29T08:40:23;51.78;;;38.88;;
56161;SDS011;42045;52.986;6.014;2023-01-29T08:42:49;57.10;;;40.13;;
56161;SDS011;42045;52.986;6.014;2023-01-29T08:45:15;50.67;;;38.50;;
56161;SDS011;42045;52.986;6.014;2023-01-29T08:47:45;50.90;;;37.78;;
56161;SDS011;42045;52.986;6.014;2023-01-29T08:50:12;55.08;;;37.25;;
56161;SDS011;42045;52.986;6.014;2023-01-29T08:52:38;48.72;;;38.13;;
56161;SDS011;42045;52.986;6.014;2023-01-29T08:55:03;51.95;;;37.88;;
56161;SDS011;42045;52.986;6.014;2023-01-29T08:57:29;48.78;;;36.95;;
56161;SDS011;42045;52.986;6.014;2023-01-29T08:59:55;44.80;;;35.80;;
56161;SDS011;42045;52.986;6.014;2023-01-29T09:02:21;54.88;;;37.17;;
56161;SDS011;42045;52.986;6.014;2023-01-29T09:04:46;49.58;;;38.03;;
56161;SDS011;42045;52.986;6.014;2023-01-29T09:07:12;46.97;;;37.30;;
56161;SDS011;42045;52.986;6.014;2023-01-29T09:09:37;48.17;;;36.58;;
56161;SDS011;42045;52.986;6.014;2023-01-29T09:12:03;51.28;;;35.38;;
56161;SDS011;42045;52.986;6.014;2023-01-29T09:14:29;45.08;;;35.38;;
56161;SDS011;42045;52.986;6.014;2023-01-29T09:16:55;48.22;;;35.75;;
56161;SDS011;42045;52.986;6.014;2023-01-29T09:19:21;45.55;;;35.22;;
56161;SDS011;42045;52.986;6.014;2023-01-29T09:21:46;51.70;;;36.95;;
56161;SDS011;42045;52.986;6.014;2023-01-29T09:24:13;49.97;;;34.97;;
56161;SDS011;42045;52.986;6.014;2023-01-29T09:26:39;50.67;;;36.65;;
56161;SDS011;42045;52.986;6.014;2023-01-29T09:29:05;47.92;;;36.63;;
56161;SDS011;42045;52.986;6.014;2023-01-29T09:31:33;53.05;;;36.05;;
56161;SDS011;42045;52.986;6.014;2023-01-29T09:33:59;49.72;;;36.20;;
56161;SDS011;42045;52.986;6.014;2023-01-29T09:36:24;48.47;;;37.03;;
56161;SDS011;42045;52.986;6.014;2023-01-29T09:38:50;51.90;;;36.40;;
56161;SDS011;42045;52.986;6.014;2023-01-29T09:41:20;54.80;;;37.72;;
56161;SDS011;42045;52.986;6.014;2023-01-29T09:44:19;45.63;;;35.85;;
56161;SDS011;42045;52.986;6.014;2023-01-29T09:46:57;46.78;;;35.65;;
56161;SDS011;42045;52.986;6.014;2023-01-29T09:49:29;50.78;;;36.88;;
56161;SDS011;42045;52.986;6.014;2023-01-29T09:52:52;54.13;;;38.58;;
56161;SDS011;42045;52.986;6.014;2023-01-29T09:57:45;54.35;;;38.72;;
56161;SDS011;42045;52.986;6.014;2023-01-29T10:00:33;53.55;;;38.85;;
56161;SDS011;42045;52.986;6.014;2023-01-29T10:05:42;58.35;;;37.90;;
56161;SDS011;42045;52.986;6.014;2023-01-29T10:11:03;60.53;;;38.88;;
56161;SDS011;42045;52.986;6.014;2023-01-29T10:16:48;63.45;;;40.28;;
56161;SDS011;42045;52.986;6.014;2023-01-29T10:24:37;57.63;;;39.60;;
56161;SDS011;42045;52.986;6.014;2023-01-29T10:27:14;57.50;;;39.55;;
56161;SDS011;42045;52.986;6.014;2023-01-29T10:29:42;57.42;;;38.45;;
56161;SDS011;42045;52.986;6.014;2023-01-29T10:32:18;60.53;;;38.22;;
56161;SDS011;42045;52.986;6.014;2023-01-29T10:34:58;60.67;;;38.60;;
56161;SDS011;42045;52.986;6.014;2023-01-29T10:37:40;56.03;;;38.05;;
56161;SDS011;42045;52.986;6.014;2023-01-29T10:40:24;55.42;;;36.95;;
56161;SDS011;42045;52.986;6.014;2023-01-29T10:45:48;53.45;;;36.95;;
56161;SDS011;42045;52.986;6.014;2023-01-29T10:48:34;51.30;;;35.22;;
56161;SDS011;42045;52.986;6.014;2023-01-29T10:59:08;52.42;;;37.92;;
56161;SDS011;42045;52.986;6.014;2023-01-29T11:02:12;53.83;;;35.97;;
56161;SDS011;42045;52.986;6.014;2023-01-29T11:04:40;55.50;;;37.20;;
56161;SDS011;42045;52.986;6.014;2023-01-29T11:07:06;49.65;;;35.67;;
56161;SDS011;42045;52.986;6.014;2023-01-29T11:09:38;47.05;;;33.72;;
56161;SDS011;42045;52.986;6.014;2023-01-29T11:12:13;48.65;;;34.83;;
56161;SDS011;42045;52.986;6.014;2023-01-29T11:14:45;48.40;;;34.90;;
56161;SDS011;42045;52.986;6.014;2023-01-29T11:17:17;46.13;;;32.78;;
56161;SDS011;42045;52.986;6.014;2023-01-29T11:19:46;45.22;;;34.83;;
56161;SDS011;42045;52.986;6.014;2023-01-29T11:22:16;56.80;;;37.92;;
56161;SDS011;42045;52.986;6.014;2023-01-29T11:25:06;67.15;;;44.28;;
56161;SDS011;42045;52.986;6.014;2023-01-29T11:27:38;63.50;;;49.40;;
56161;SDS011;42045;52.986;6.014;2023-01-29T11:32:43;44.13;;;31.27;;
56161;SDS011;42045;52.986;6.014;2023-01-29T11:37:40;44.63;;;32.55;;
56161;SDS011;42045;52.986;6.014;2023-01-29T11:42:47;41.67;;;30.15;;
56161;SDS011;42045;52.986;6.014;2023-01-29T11:47:54;42.08;;;30.00;;
56161;SDS011;42045;52.986;6.014;2023-01-29T11:50:28;42.17;;;30.88;;
56161;SDS011;42045;52.986;6.014;2023-01-29T11:52:59;44.72;;;31.63;;
56161;SDS011;42045;52.986;6.014;2023-01-29T11:55:29;41.10;;;31.77;;
56161;SDS011;42045;52.986;6.014;2023-01-29T12:00:27;38.95;;;30.20;;
56161;SDS011;42045;52.986;6.014;2023-01-29T12:03:04;46.25;;;31.30;;
56161;SDS011;42045;52.986;6.014;2023-01-29T12:05:36;41.78;;;29.80;;
56161;SDS011;42045;52.986;6.014;2023-01-29T12:08:09;38.63;;;28.40;;
56161;SDS011;42045;52.986;6.014;2023-01-29T12:10:41;42.20;;;30.00;;
56161;SDS011;42045;52.986;6.014;2023-01-29T12:15:45;48.28;;;38.97;;
56161;SDS011;42045;52.986;6.014;2023-01-29T12:18:28;48.42;;;37.55;;
56161;SDS011;42045;52.986;6.014;2023-01-29T12:21:32;50.80;;;34.72;;
56161;SDS011;42045;52.986;6.014;2023-01-29T12:24:22;44.08;;;32.72;;
56161;SDS011;42045;52.986;6.014;2023-01-29T12:26:50;48.63;;;34.55;;
56161;SDS011;42045;52.986;6.014;2023-01-29T12:29:35;50.15;;;37.53;;
56161;SDS011;42045;52.986;6.014;2023-01-29T12:32:06;43.60;;;33.90;;
56161;SDS011;42045;52.986;6.014;2023-01-29T12:35:45;50.97;;;36.15;;
56161;SDS011;42045;52.986;6.014;2023-01-29T12:37:47;49.95;;;36.00;;
56161;SDS011;42045;52.986;6.014;2023-01-29T12:40:29;52.00;;;37.53;;
56161;SDS011;42045;52.986;6.014;2023-01-29T12:43:01;54.58;;;37.05;;
56161;SDS011;42045;52.986;6.014;2023-01-29T12:45:30;48.08;;;35.50;;
56161;SDS011;42045;52.986;6.014;2023-01-29T12:47:59;49.90;;;36.90;;
56161;SDS011;42045;52.986;6.014;2023-01-29T12:50:33;51.43;;;37.23;;
56161;SDS011;42045;52.986;6.014;2023-01-29T12:53:18;47.50;;;35.15;;
56161;SDS011;42045;52.986;6.014;2023-01-29T12:55:52;53.45;;;37.22;;
56161;SDS011;42045;52.986;6.014;2023-01-29T12:58:34;53.47;;;36.85;;
56161;SDS011;42045;52.986;6.014;2023-01-29T13:01:07;50.35;;;35.22;;
56161;SDS011;42045;52.986;6.014;2023-01-29T13:03:58;56.92;;;37.38;;
56161;SDS011;42045;52.986;6.014;2023-01-29T13:06:34;52.92;;;34.47;;
56161;SDS011;42045;52.986;6.014;2023-01-29T13:09:08;53.90;;;35.88;;
56161;SDS011;42045;52.986;6.014;2023-01-29T13:11:40;49.17;;;34.03;;
56161;SDS011;42045;52.986;6.014;2023-01-29T13:17:24;49.90;;;35.10;;
56161;SDS011;42045;52.986;6.014;2023-01-29T13:20:00;51.40;;;36.40;;
56161;SDS011;42045;52.986;6.014;2023-01-29T13:22:42;57.53;;;37.00;;
56161;SDS011;42045;52.986;6.014;2023-01-29T13:25:14;55.45;;;37.55;;
56161;SDS011;42045;52.986;6.014;2023-01-29T13:27:42;56.92;;;37.35;;
56161;SDS011;42045;52.986;6.014;2023-01-29T13:30:31;55.15;;;35.50;;
56161;SDS011;42045;52.986;6.014;2023-01-29T13:32:59;56.08;;;36.88;;
56161;SDS011;42045;52.986;6.014;2023-01-29T13:35:37;54.92;;;36.97;;
56161;SDS011;42045;52.986;6.014;2023-01-29T13:38:21;55.35;;;36.45;;
56161;SDS011;42045;52.986;6.014;2023-01-29T13:40:47;59.55;;;36.92;;
56161;SDS011;42045;52.986;6.014;2023-01-29T13:43:21;56.38;;;36.70;;
56161;SDS011;42045;52.986;6.014;2023-01-29T13:45:48;55.55;;;37.78;;
56161;SDS011;42045;52.986;6.014;2023-01-29T13:48:26;57.03;;;35.03;;
56161;SDS011;42045;52.986;6.014;2023-01-29T13:51:01;51.72;;;35.10;;
56161;SDS011;42045;52.986;6.014;2023-01-29T13:53:31;51.95;;;36.55;;
56161;SDS011;42045;52.986;6.014;2023-01-29T13:58:53;51.47;;;37.05;;
56161;SDS011;42045;52.986;6.014;2023-01-29T14:04:27;55.72;;;39.22;;
56161;SDS011;42045;52.986;6.014;2023-01-29T14:06:55;55.38;;;38.65;;
56161;SDS011;42045;52.986;6.014;2023-01-29T14:12:06;58.53;;;39.55;;
56161;SDS011;42045;52.986;6.014;2023-01-29T14:14:50;58.80;;;40.63;;
56161;SDS011;42045;52.986;6.014;2023-01-29T14:17:26;63.22;;;40.50;;
56161;SDS011;42045;52.986;6.014;2023-01-29T14:20:01;66.72;;;40.75;;
56161;SDS011;42045;52.986;6.014;2023-01-29T14:22:40;62.03;;;40.35;;
56161;SDS011;42045;52.986;6.014;2023-01-29T14:25:14;65.43;;;41.45;;
56161;SDS011;42045;52.986;6.014;2023-01-29T14:27:45;59.50;;;38.90;;
56161;SDS011;42045;52.986;6.014;2023-01-29T14:30:13;60.40;;;38.25;;
56161;SDS011;42045;52.986;6.014;2023-01-29T14:32:42;61.22;;;40.70;;
56161;SDS011;42045;52.986;6.014;2023-01-29T14:35:16;69.70;;;42.97;;
56161;SDS011;42045;52.986;6.014;2023-01-29T14:37:45;72.18;;;44.45;;
56161;SDS011;42045;52.986;6.014;2023-01-29T14:40:18;71.55;;;43.75;;
56161;SDS011;42045;52.986;6.014;2023-01-29T14:48:16;74.90;;;45.03;;
56161;SDS011;42045;52.986;6.014;2023-01-29T14:50:47;73.93;;;45.03;;
56161;SDS011;42045;52.986;6.014;2023-01-29T14:58:47;75.45;;;49.20;;
56161;SDS011;42045;52.986;6.014;2023-01-29T15:01:25;70.85;;;44.15;;
56161;SDS011;42045;52.986;6.014;2023-01-29T15:03:59;74.20;;;45.50;;
56161;SDS011;42045;52.986;6.014;2023-01-29T15:06:37;76.40;;;45.80;;
56161;SDS011;42045;52.986;6.014;2023-01-29T15:09:16;68.95;;;43.38;;
56161;SDS011;42045;52.986;6.014;2023-01-29T15:14:47;79.00;;;47.00;;
56161;SDS011;42045;52.986;6.014;2023-01-29T15:17:25;74.93;;;43.55;;
56161;SDS011;42045;52.986;6.014;2023-01-29T15:20:00;76.63;;;46.35;;
56161;SDS011;42045;52.986;6.014;2023-01-29T15:22:26;76.80;;;45.08;;
56161;SDS011;42045;52.986;6.014;2023-01-29T15:25:08;78.90;;;46.47;;
56161;SDS011;42045;52.986;6.014;2023-01-29T15:27:57;73.82;;;44.95;;
56161;SDS011;42045;52.986;6.014;2023-01-29T15:30:25;75.00;;;43.30;;
56161;SDS011;42045;52.986;6.014;2023-01-29T15:37:59;73.70;;;43.25;;
56161;SDS011;42045;52.986;6.014;2023-01-29T15:40:30;79.50;;;44.70;;
56161;SDS011;42045;52.986;6.014;2023-01-29T15:42:56;72.80;;;41.70;;
56161;SDS011;42045;52.986;6.014;2023-01-29T15:45:23;78.97;;;44.55;;
56161;SDS011;42045;52.986;6.014;2023-01-29T15:47:53;75.40;;;44.63;;
56161;SDS011;42045;52.986;6.014;2023-01-29T15:50:23;80.97;;;42.25;;
56161;SDS011;42045;52.986;6.014;2023-01-29T15:52:50;81.55;;;43.10;;
56161;SDS011;42045;52.986;6.014;2023-01-29T15:55:18;71.88;;;41.78;;
56161;SDS011;42045;52.986;6.014;2023-01-29T15:57:47;73.75;;;42.67;;
56161;SDS011;42045;52.986;6.014;2023-01-29T16:00:21;73.00;;;42.10;;
56161;SDS011;42045;52.986;6.014;2023-01-29T16:02:52;69.75;;;40.30;;
56161;SDS011;42045;52.986;6.014;2023-01-29T16:05:20;72.85;;;40.60;;
56161;SDS011;42045;52.986;6.014;2023-01-29T16:07:53;65.30;;;40.42;;
56161;SDS011;42045;52.986;6.014;2023-01-29T16:10:22;76.13;;;41.58;;
56161;SDS011;42045;52.986;6.014;2023-01-29T16:12:51;71.68;;;41.70;;
56161;SDS011;42045;52.986;6.014;2023-01-29T16:15:22;69.13;;;41.65;;
56161;SDS011;42045;52.986;6.014;2023-01-29T16:17:58;65.40;;;40.83;;
56161;SDS011;42045;52.986;6.014;2023-01-29T16:20:30;69.10;;;41.00;;
56161;SDS011;42045;52.986;6.014;2023-01-29T16:23:00;67.68;;;40.58;;
56161;SDS011;42045;52.986;6.014;2023-01-29T16:25:26;71.57;;;42.08;;
56161;SDS011;42045;52.986;6.014;2023-01-29T16:27:54;67.72;;;41.58;;
56161;SDS011;42045;52.986;6.014;2023-01-29T16:30:20;69.20;;;39.92;;
56161;SDS011;42045;52.986;6.014;2023-01-29T16:32:50;61.88;;;40.28;;
56161;SDS011;42045;52.986;6.014;2023-01-29T16:35:16;67.70;;;41.60;;
56161;SDS011;42045;52.986;6.014;2023-01-29T16:37:45;65.60;;;40.03;;
56161;SDS011;42045;52.986;6.014;2023-01-29T16:40:14;65.88;;;40.33;;
56161;SDS011;42045;52.986;6.014;2023-01-29T16:42:55;65.00;;;39.03;;
56161;SDS011;42045;52.986;6.014;2023-01-29T16:45:32;69.40;;;40.03;;
56161;SDS011;42045;52.986;6.014;2023-01-29T16:47:59;68.22;;;39.47;;
56161;SDS011;42045;52.986;6.014;2023-01-29T16:50:30;165.68;;;91.55;;
56161;SDS011;42045;52.986;6.014;2023-01-29T16:53:10;80.55;;;49.55;;